sensor_id;sensor_type;location;lat;lon;timestamp;pressure;altitude;pressure_sealevel;temperature
40968;BMP280;57377;45.130;6.038;2023-04-27T00:00:42;92554.16;;;11.63
40968;BMP280;57377;45.130;6.038;2023-04-27T00:03:07;92549.13;;;11.40
40968;BMP280;57377;45.130;6.038;2023-04-27T00:05:34;92541.13;;;12.33
40968;BMP280;57377;45.130;6.038;2023-04-27T00:08:00;92539.41;;;12.50
40968;BMP280;57377;45.130;6.038;2023-04-27T00:10:25;92531.78;;;12.76
40968;BMP280;57377;45.130;6.038;2023-04-27T00:12:51;92534.00;;;12.60
40968;BMP280;57377;45.130;6.038;2023-04-27T00:15:16;92536.50;;;12.74
40968;BMP280;57377;45.130;6.038;2023-04-27T00:17:41;92527.09;;;12.64
40968;BMP280;57377;45.130;6.038;2023-04-27T00:20:08;92526.56;;;11.97
40968;BMP280;57377;45.130;6.038;2023-04-27T00:22:36;92528.53;;;11.92
40968;BMP280;57377;45.130;6.038;2023-04-27T00:25:02;92529.94;;;12.11
40968;BMP280;57377;45.130;6.038;2023-04-27T00:27:27;92531.16;;;11.79
40968;BMP280;57377;45.130;6.038;2023-04-27T00:29:53;92539.19;;;11.29
40968;BMP280;57377;45.130;6.038;2023-04-27T00:32:18;92528.00;;;11.02
40968;BMP280;57377;45.130;6.038;2023-04-27T00:34:43;92528.69;;;11.60
40968;BMP280;57377;45.130;6.038;2023-04-27T00:37:09;92523.63;;;12.12
40968;BMP280;57377;45.130;6.038;2023-04-27T00:39:34;92517.66;;;12.33
40968;BMP280;57377;45.130;6.038;2023-04-27T00:42:00;92518.44;;;12.34
40968;BMP280;57377;45.130;6.038;2023-04-27T00:44:26;92512.81;;;12.40
40968;BMP280;57377;45.130;6.038;2023-04-27T00:46:52;92504.81;;;12.37
40968;BMP280;57377;45.130;6.038;2023-04-27T00:49:22;92502.56;;;12.44
40968;BMP280;57377;45.130;6.038;2023-04-27T00:51:48;92503.63;;;12.43
40968;BMP280;57377;45.130;6.038;2023-04-27T00:54:18;92514.75;;;12.13
40968;BMP280;57377;45.130;6.038;2023-04-27T00:56:47;92504.59;;;11.90
40968;BMP280;57377;45.130;6.038;2023-04-27T00:59:13;92510.00;;;11.93
40968;BMP280;57377;45.130;6.038;2023-04-27T01:01:38;92507.09;;;11.95
40968;BMP280;57377;45.130;6.038;2023-04-27T01:04:04;92503.28;;;11.79
40968;BMP280;57377;45.130;6.038;2023-04-27T01:06:29;92501.84;;;12.08
40968;BMP280;57377;45.130;6.038;2023-04-27T01:08:56;92500.03;;;12.17
40968;BMP280;57377;45.130;6.038;2023-04-27T01:11:22;92499.53;;;12.28
40968;BMP280;57377;45.130;6.038;2023-04-27T01:13:47;92497.22;;;12.49
40968;BMP280;57377;45.130;6.038;2023-04-27T01:16:13;92497.56;;;12.12
40968;BMP280;57377;45.130;6.038;2023-04-27T01:18:38;92501.84;;;12.51
40968;BMP280;57377;45.130;6.038;2023-04-27T01:21:05;92505.50;;;12.29
40968;BMP280;57377;45.130;6.038;2023-04-27T01:23:31;92498.00;;;12.49
40968;BMP280;57377;45.130;6.038;2023-04-27T01:25:56;92502.44;;;12.49
40968;BMP280;57377;45.130;6.038;2023-04-27T01:28:22;92499.13;;;12.35
40968;BMP280;57377;45.130;6.038;2023-04-27T01:30:47;92498.09;;;11.66
40968;BMP280;57377;45.130;6.038;2023-04-27T01:33:12;92514.09;;;11.33
40968;BMP280;57377;45.130;6.038;2023-04-27T01:35:38;92510.34;;;10.99
40968;BMP280;57377;45.130;6.038;2023-04-27T01:38:03;92510.94;;;10.96
40968;BMP280;57377;45.130;6.038;2023-04-27T01:40:28;92517.28;;;11.70
40968;BMP280;57377;45.130;6.038;2023-04-27T01:42:54;92509.03;;;11.89
40968;BMP280;57377;45.130;6.038;2023-04-27T01:45:20;92513.81;;;12.09
40968;BMP280;57377;45.130;6.038;2023-04-27T01:47:45;92507.94;;;12.25
40968;BMP280;57377;45.130;6.038;2023-04-27T01:50:11;92508.06;;;11.85
40968;BMP280;57377;45.130;6.038;2023-04-27T01:52:36;92508.69;;;12.04
40968;BMP280;57377;45.130;6.038;2023-04-27T01:55:01;92504.00;;;12.15
40968;BMP280;57377;45.130;6.038;2023-04-27T01:57:27;92506.31;;;12.29
40968;BMP280;57377;45.130;6.038;2023-04-27T01:59:52;92508.09;;;12.07
40968;BMP280;57377;45.130;6.038;2023-04-27T02:02:18;92502.91;;;12.29
40968;BMP280;57377;45.130;6.038;2023-04-27T02:04:43;92512.16;;;12.13
40968;BMP280;57377;45.130;6.038;2023-04-27T02:07:09;92520.94;;;11.82
40968;BMP280;57377;45.130;6.038;2023-04-27T02:09:35;92526.97;;;11.56
40968;BMP280;57377;45.130;6.038;2023-04-27T02:12:00;92522.03;;;11.54
40968;BMP280;57377;45.130;6.038;2023-04-27T02:14:26;92531.69;;;11.54
40968;BMP280;57377;45.130;6.038;2023-04-27T02:16:52;92535.22;;;11.71
40968;BMP280;57377;45.130;6.038;2023-04-27T02:19:17;92528.59;;;11.65
40968;BMP280;57377;45.130;6.038;2023-04-27T02:21:43;92530.63;;;11.55
40968;BMP280;57377;45.130;6.038;2023-04-27T02:24:08;92520.16;;;11.82
40968;BMP280;57377;45.130;6.038;2023-04-27T02:26:34;92536.00;;;11.19
40968;BMP280;57377;45.130;6.038;2023-04-27T02:28:59;92543.13;;;11.40
40968;BMP280;57377;45.130;6.038;2023-04-27T02:31:25;92550.16;;;10.86
40968;BMP280;57377;45.130;6.038;2023-04-27T02:33:51;92548.00;;;10.61
40968;BMP280;57377;45.130;6.038;2023-04-27T02:36:16;92542.19;;;11.09
40968;BMP280;57377;45.130;6.038;2023-04-27T02:38:42;92546.44;;;11.58
40968;BMP280;57377;45.130;6.038;2023-04-27T02:41:07;92539.09;;;11.74
40968;BMP280;57377;45.130;6.038;2023-04-27T02:43:32;92540.84;;;11.52
40968;BMP280;57377;45.130;6.038;2023-04-27T02:46:04;92547.22;;;11.72
40968;BMP280;57377;45.130;6.038;2023-04-27T02:48:30;92546.06;;;11.38
40968;BMP280;57377;45.130;6.038;2023-04-27T02:50:55;92547.84;;;10.53
40968;BMP280;57377;45.130;6.038;2023-04-27T02:53:21;92543.00;;;10.47
40968;BMP280;57377;45.130;6.038;2023-04-27T02:55:47;92551.28;;;10.17
40968;BMP280;57377;45.130;6.038;2023-04-27T02:58:12;92556.25;;;10.32
40968;BMP280;57377;45.130;6.038;2023-04-27T03:00:38;92547.59;;;10.68
40968;BMP280;57377;45.130;6.038;2023-04-27T03:03:05;92555.19;;;10.96
40968;BMP280;57377;45.130;6.038;2023-04-27T03:05:30;92552.66;;;10.91
40968;BMP280;57377;45.130;6.038;2023-04-27T03:07:56;92554.31;;;11.00
40968;BMP280;57377;45.130;6.038;2023-04-27T03:10:21;92554.13;;;11.23
40968;BMP280;57377;45.130;6.038;2023-04-27T03:12:46;92550.88;;;11.45
40968;BMP280;57377;45.130;6.038;2023-04-27T03:15:12;92557.22;;;11.39
40968;BMP280;57377;45.130;6.038;2023-04-27T03:17:37;92564.50;;;11.55
40968;BMP280;57377;45.130;6.038;2023-04-27T03:20:03;92555.63;;;11.56
40968;BMP280;57377;45.130;6.038;2023-04-27T03:22:31;92551.69;;;11.45
40968;BMP280;57377;45.130;6.038;2023-04-27T03:24:56;92549.53;;;11.34
40968;BMP280;57377;45.130;6.038;2023-04-27T03:27:21;92539.91;;;11.48
40968;BMP280;57377;45.130;6.038;2023-04-27T03:29:50;92547.19;;;11.32
40968;BMP280;57377;45.130;6.038;2023-04-27T03:32:17;92544.13;;;11.57
40968;BMP280;57377;45.130;6.038;2023-04-27T03:34:42;92550.09;;;10.59
40968;BMP280;57377;45.130;6.038;2023-04-27T03:37:07;92561.06;;;10.07
40968;BMP280;57377;45.130;6.038;2023-04-27T03:39:33;92553.00;;;9.90
40968;BMP280;57377;45.130;6.038;2023-04-27T03:41:58;92544.28;;;10.81
40968;BMP280;57377;45.130;6.038;2023-04-27T03:44:23;92547.00;;;11.16
40968;BMP280;57377;45.130;6.038;2023-04-27T03:46:49;92547.59;;;11.13
40968;BMP280;57377;45.130;6.038;2023-04-27T03:49:14;92538.44;;;11.28
40968;BMP280;57377;45.130;6.038;2023-04-27T03:51:39;92542.22;;;11.49
40968;BMP280;57377;45.130;6.038;2023-04-27T03:54:06;92542.00;;;11.59
40968;BMP280;57377;45.130;6.038;2023-04-27T03:56:31;92544.22;;;11.52
40968;BMP280;57377;45.130;6.038;2023-04-27T03:58:57;92538.94;;;10.72
40968;BMP280;57377;45.130;6.038;2023-04-27T04:01:22;92554.09;;;10.21
40968;BMP280;57377;45.130;6.038;2023-04-27T04:03:49;92533.94;;;10.44
40968;BMP280;57377;45.130;6.038;2023-04-27T04:06:15;92537.53;;;10.93
40968;BMP280;57377;45.130;6.038;2023-04-27T04:08:41;92543.72;;;11.23
40968;BMP280;57377;45.130;6.038;2023-04-27T04:11:06;92542.22;;;11.49
40968;BMP280;57377;45.130;6.038;2023-04-27T04:13:32;92533.41;;;11.19
40968;BMP280;57377;45.130;6.038;2023-04-27T04:16:02;92535.59;;;10.98
40968;BMP280;57377;45.130;6.038;2023-04-27T04:18:28;92528.75;;;10.76
40968;BMP280;57377;45.130;6.038;2023-04-27T04:20:54;92536.41;;;10.04
40968;BMP280;57377;45.130;6.038;2023-04-27T04:23:19;92533.66;;;10.77
40968;BMP280;57377;45.130;6.038;2023-04-27T04:25:45;92534.81;;;10.71
40968;BMP280;57377;45.130;6.038;2023-04-27T04:28:12;92545.25;;;10.03
40968;BMP280;57377;45.130;6.038;2023-04-27T04:30:37;92557.28;;;9.76
40968;BMP280;57377;45.130;6.038;2023-04-27T04:33:03;92562.84;;;9.70
40968;BMP280;57377;45.130;6.038;2023-04-27T04:35:29;92552.63;;;10.64
40968;BMP280;57377;45.130;6.038;2023-04-27T04:37:57;92554.09;;;10.97
40968;BMP280;57377;45.130;6.038;2023-04-27T04:40:23;92558.91;;;10.77
40968;BMP280;57377;45.130;6.038;2023-04-27T04:42:48;92566.97;;;10.75
40968;BMP280;57377;45.130;6.038;2023-04-27T04:45:14;92556.91;;;11.14
40968;BMP280;57377;45.130;6.038;2023-04-27T04:47:39;92561.47;;;11.08
40968;BMP280;57377;45.130;6.038;2023-04-27T04:52:41;92558.75;;;11.00
40968;BMP280;57377;45.130;6.038;2023-04-27T04:55:07;92568.59;;;10.08
40968;BMP280;57377;45.130;6.038;2023-04-27T04:57:32;92566.78;;;9.86
40968;BMP280;57377;45.130;6.038;2023-04-27T04:59:58;92560.19;;;9.75
40968;BMP280;57377;45.130;6.038;2023-04-27T05:02:23;92568.22;;;10.33
40968;BMP280;57377;45.130;6.038;2023-04-27T05:04:49;92565.38;;;10.48
40968;BMP280;57377;45.130;6.038;2023-04-27T05:07:16;92561.78;;;10.75
40968;BMP280;57377;45.130;6.038;2023-04-27T05:09:42;92565.31;;;10.66
40968;BMP280;57377;45.130;6.038;2023-04-27T05:12:08;92569.56;;;11.07
40968;BMP280;57377;45.130;6.038;2023-04-27T05:14:34;92567.16;;;11.23
40968;BMP280;57377;45.130;6.038;2023-04-27T05:17:03;92572.09;;;11.12
40968;BMP280;57377;45.130;6.038;2023-04-27T05:20:22;92581.03;;;9.88
40968;BMP280;57377;45.130;6.038;2023-04-27T05:23:32;92574.94;;;10.52
40968;BMP280;57377;45.130;6.038;2023-04-27T05:25:58;92568.72;;;10.80
40968;BMP280;57377;45.130;6.038;2023-04-27T05:28:23;92568.44;;;10.18
40968;BMP280;57377;45.130;6.038;2023-04-27T05:30:49;92572.00;;;10.85
40968;BMP280;57377;45.130;6.038;2023-04-27T05:33:14;92571.00;;;11.13
40968;BMP280;57377;45.130;6.038;2023-04-27T05:35:42;92572.88;;;11.39
40968;BMP280;57377;45.130;6.038;2023-04-27T05:38:07;92579.88;;;10.67
40968;BMP280;57377;45.130;6.038;2023-04-27T05:40:33;92574.91;;;10.84
40968;BMP280;57377;45.130;6.038;2023-04-27T05:42:58;92584.13;;;10.13
40968;BMP280;57377;45.130;6.038;2023-04-27T05:45:27;92585.03;;;9.81
40968;BMP280;57377;45.130;6.038;2023-04-27T05:47:53;92576.38;;;9.90
40968;BMP280;57377;45.130;6.038;2023-04-27T05:50:18;92582.31;;;9.72
40968;BMP280;57377;45.130;6.038;2023-04-27T05:52:44;92577.34;;;10.12
40968;BMP280;57377;45.130;6.038;2023-04-27T05:55:10;92580.19;;;10.16
40968;BMP280;57377;45.130;6.038;2023-04-27T05:57:35;92583.06;;;9.73
40968;BMP280;57377;45.130;6.038;2023-04-27T06:00:03;92574.25;;;10.10
40968;BMP280;57377;45.130;6.038;2023-04-27T06:02:33;92584.69;;;10.42
40968;BMP280;57377;45.130;6.038;2023-04-27T06:04:58;92574.25;;;10.91
40968;BMP280;57377;45.130;6.038;2023-04-27T06:07:26;92573.44;;;11.09
40968;BMP280;57377;45.130;6.038;2023-04-27T06:09:52;92574.41;;;10.68
40968;BMP280;57377;45.130;6.038;2023-04-27T06:12:18;92586.91;;;9.98
40968;BMP280;57377;45.130;6.038;2023-04-27T06:14:43;92584.38;;;9.93
40968;BMP280;57377;45.130;6.038;2023-04-27T06:17:09;92575.84;;;10.74
40968;BMP280;57377;45.130;6.038;2023-04-27T06:19:34;92575.16;;;11.14
40968;BMP280;57377;45.130;6.038;2023-04-27T06:22:00;92581.69;;;11.11
40968;BMP280;57377;45.130;6.038;2023-04-27T06:24:27;92576.91;;;11.31
40968;BMP280;57377;45.130;6.038;2023-04-27T06:26:53;92585.56;;;11.14
40968;BMP280;57377;45.130;6.038;2023-04-27T06:29:19;92588.25;;;11.09
40968;BMP280;57377;45.130;6.038;2023-04-27T06:31:44;92595.06;;;10.10
40968;BMP280;57377;45.130;6.038;2023-04-27T06:34:13;92600.75;;;9.94
40968;BMP280;57377;45.130;6.038;2023-04-27T06:36:38;92601.66;;;10.21
40968;BMP280;57377;45.130;6.038;2023-04-27T06:39:04;92608.09;;;10.60
40968;BMP280;57377;45.130;6.038;2023-04-27T06:41:29;92602.03;;;10.96
40968;BMP280;57377;45.130;6.038;2023-04-27T06:43:55;92603.94;;;10.90
40968;BMP280;57377;45.130;6.038;2023-04-27T06:46:20;92598.88;;;11.12
40968;BMP280;57377;45.130;6.038;2023-04-27T06:48:46;92588.03;;;10.92
40968;BMP280;57377;45.130;6.038;2023-04-27T06:51:12;92597.91;;;10.95
40968;BMP280;57377;45.130;6.038;2023-04-27T06:53:38;92585.72;;;10.90
40968;BMP280;57377;45.130;6.038;2023-04-27T06:56:05;92593.13;;;11.28
40968;BMP280;57377;45.130;6.038;2023-04-27T06:58:31;92590.44;;;11.73
40968;BMP280;57377;45.130;6.038;2023-04-27T07:00:56;92589.47;;;11.43
40968;BMP280;57377;45.130;6.038;2023-04-27T07:03:25;92603.00;;;11.58
40968;BMP280;57377;45.130;6.038;2023-04-27T07:05:50;92591.13;;;11.65
40968;BMP280;57377;45.130;6.038;2023-04-27T07:08:16;92583.69;;;11.72
40968;BMP280;57377;45.130;6.038;2023-04-27T07:10:42;92585.72;;;11.88
40968;BMP280;57377;45.130;6.038;2023-04-27T07:13:07;92585.59;;;11.93
40968;BMP280;57377;45.130;6.038;2023-04-27T07:15:33;92576.09;;;12.11
40968;BMP280;57377;45.130;6.038;2023-04-27T07:17:58;92576.47;;;12.18
40968;BMP280;57377;45.130;6.038;2023-04-27T07:20:24;92580.72;;;12.49
40968;BMP280;57377;45.130;6.038;2023-04-27T07:22:50;92576.38;;;12.44
40968;BMP280;57377;45.130;6.038;2023-04-27T07:25:16;92572.03;;;12.40
40968;BMP280;57377;45.130;6.038;2023-04-27T07:27:42;92570.41;;;12.87
40968;BMP280;57377;45.130;6.038;2023-04-27T07:30:08;92561.63;;;13.13
40968;BMP280;57377;45.130;6.038;2023-04-27T07:32:39;92554.06;;;12.60
40968;BMP280;57377;45.130;6.038;2023-04-27T07:35:06;92550.09;;;12.84
40968;BMP280;57377;45.130;6.038;2023-04-27T07:37:31;92549.31;;;13.05
40968;BMP280;57377;45.130;6.038;2023-04-27T07:39:57;92549.72;;;13.20
40968;BMP280;57377;45.130;6.038;2023-04-27T07:42:24;92551.06;;;12.88
40968;BMP280;57377;45.130;6.038;2023-04-27T07:44:50;92551.66;;;13.15
40968;BMP280;57377;45.130;6.038;2023-04-27T07:47:16;92546.22;;;13.33
40968;BMP280;57377;45.130;6.038;2023-04-27T07:49:45;92546.78;;;13.60
40968;BMP280;57377;45.130;6.038;2023-04-27T07:52:11;92543.03;;;13.45
40968;BMP280;57377;45.130;6.038;2023-04-27T07:54:37;92540.59;;;13.48
40968;BMP280;57377;45.130;6.038;2023-04-27T07:57:09;92534.47;;;13.22
40968;BMP280;57377;45.130;6.038;2023-04-27T07:59:36;92535.03;;;13.41
40968;BMP280;57377;45.130;6.038;2023-04-27T08:02:01;92538.50;;;13.67
40968;BMP280;57377;45.130;6.038;2023-04-27T08:04:27;92532.00;;;13.56
40968;BMP280;57377;45.130;6.038;2023-04-27T08:06:53;92526.09;;;13.97
40968;BMP280;57377;45.130;6.038;2023-04-27T08:09:18;92516.75;;;14.13
40968;BMP280;57377;45.130;6.038;2023-04-27T08:11:44;92525.69;;;14.12
40968;BMP280;57377;45.130;6.038;2023-04-27T08:14:10;92523.31;;;13.94
40968;BMP280;57377;45.130;6.038;2023-04-27T08:16:41;92521.34;;;14.16
40968;BMP280;57377;45.130;6.038;2023-04-27T08:19:07;92522.13;;;14.25
40968;BMP280;57377;45.130;6.038;2023-04-27T08:21:36;92514.59;;;14.32
40968;BMP280;57377;45.130;6.038;2023-04-27T08:24:03;92516.19;;;13.77
40968;BMP280;57377;45.130;6.038;2023-04-27T08:26:29;92517.28;;;13.85
40968;BMP280;57377;45.130;6.038;2023-04-27T08:28:54;92510.56;;;14.09
40968;BMP280;57377;45.130;6.038;2023-04-27T08:31:22;92516.22;;;13.94
40968;BMP280;57377;45.130;6.038;2023-04-27T08:33:47;92522.56;;;14.02
40968;BMP280;57377;45.130;6.038;2023-04-27T08:36:13;92512.75;;;14.41
40968;BMP280;57377;45.130;6.038;2023-04-27T08:38:39;92507.78;;;14.64
40968;BMP280;57377;45.130;6.038;2023-04-27T08:41:04;92508.22;;;14.83
40968;BMP280;57377;45.130;6.038;2023-04-27T08:43:34;92502.81;;;14.88
40968;BMP280;57377;45.130;6.038;2023-04-27T08:46:02;92502.47;;;15.06
40968;BMP280;57377;45.130;6.038;2023-04-27T08:48:28;92502.63;;;15.09
40968;BMP280;57377;45.130;6.038;2023-04-27T08:50:55;92495.34;;;15.23
40968;BMP280;57377;45.130;6.038;2023-04-27T08:53:22;92485.03;;;15.18
40968;BMP280;57377;45.130;6.038;2023-04-27T08:55:48;92477.13;;;15.27
40968;BMP280;57377;45.130;6.038;2023-04-27T08:58:14;92482.19;;;15.32
40968;BMP280;57377;45.130;6.038;2023-04-27T09:00:41;92481.81;;;15.05
40968;BMP280;57377;45.130;6.038;2023-04-27T09:03:23;92476.34;;;15.26
40968;BMP280;57377;45.130;6.038;2023-04-27T09:05:49;92472.50;;;15.32
40968;BMP280;57377;45.130;6.038;2023-04-27T09:08:15;92476.19;;;15.31
40968;BMP280;57377;45.130;6.038;2023-04-27T09:10:49;92472.22;;;15.25
40968;BMP280;57377;45.130;6.038;2023-04-27T09:13:15;92478.63;;;15.36
40968;BMP280;57377;45.130;6.038;2023-04-27T09:15:45;92481.31;;;15.19
40968;BMP280;57377;45.130;6.038;2023-04-27T09:18:19;92472.41;;;15.49
40968;BMP280;57377;45.130;6.038;2023-04-27T09:20:54;92463.34;;;15.67
40968;BMP280;57377;45.130;6.038;2023-04-27T09:23:33;92473.13;;;15.58
40968;BMP280;57377;45.130;6.038;2023-04-27T09:26:00;92472.69;;;15.56
40968;BMP280;57377;45.130;6.038;2023-04-27T09:28:26;92475.88;;;15.61
40968;BMP280;57377;45.130;6.038;2023-04-27T09:30:54;92467.34;;;15.73
40968;BMP280;57377;45.130;6.038;2023-04-27T09:33:32;92465.41;;;15.81
40968;BMP280;57377;45.130;6.038;2023-04-27T09:36:00;92470.75;;;15.65
40968;BMP280;57377;45.130;6.038;2023-04-27T09:38:26;92465.38;;;15.90
40968;BMP280;57377;45.130;6.038;2023-04-27T09:40:52;92471.19;;;15.95
40968;BMP280;57377;45.130;6.038;2023-04-27T09:43:18;92465.03;;;15.91
40968;BMP280;57377;45.130;6.038;2023-04-27T09:45:44;92467.72;;;16.03
40968;BMP280;57377;45.130;6.038;2023-04-27T09:48:11;92459.06;;;16.11
40968;BMP280;57377;45.130;6.038;2023-04-27T09:50:41;92448.66;;;16.35
40968;BMP280;57377;45.130;6.038;2023-04-27T09:53:14;92457.44;;;16.38
40968;BMP280;57377;45.130;6.038;2023-04-27T09:55:50;92462.69;;;16.38
40968;BMP280;57377;45.130;6.038;2023-04-27T09:58:51;92457.69;;;16.45
40968;BMP280;57377;45.130;6.038;2023-04-27T10:01:27;92469.78;;;16.58
40968;BMP280;57377;45.130;6.038;2023-04-27T10:07:02;92453.13;;;16.86
40968;BMP280;57377;45.130;6.038;2023-04-27T10:09:36;92459.16;;;16.99
40968;BMP280;57377;45.130;6.038;2023-04-27T10:12:13;92456.47;;;17.07
40968;BMP280;57377;45.130;6.038;2023-04-27T10:14:50;92462.47;;;17.07
40968;BMP280;57377;45.130;6.038;2023-04-27T10:17:16;92453.47;;;17.08
40968;BMP280;57377;45.130;6.038;2023-04-27T10:19:52;92447.38;;;17.16
40968;BMP280;57377;45.130;6.038;2023-04-27T10:22:19;92438.31;;;17.26
40968;BMP280;57377;45.130;6.038;2023-04-27T10:24:48;92439.06;;;17.38
40968;BMP280;57377;45.130;6.038;2023-04-27T10:27:16;92434.81;;;17.45
40968;BMP280;57377;45.130;6.038;2023-04-27T10:29:45;92443.25;;;17.39
40968;BMP280;57377;45.130;6.038;2023-04-27T10:32:25;92436.66;;;17.33
40968;BMP280;57377;45.130;6.038;2023-04-27T10:35:03;92437.22;;;17.27
40968;BMP280;57377;45.130;6.038;2023-04-27T10:37:42;92441.69;;;17.38
40968;BMP280;57377;45.130;6.038;2023-04-27T10:40:08;92439.75;;;17.47
40968;BMP280;57377;45.130;6.038;2023-04-27T10:42:35;92433.25;;;17.68
40968;BMP280;57377;45.130;6.038;2023-04-27T10:45:01;92435.66;;;17.85
40968;BMP280;57377;45.130;6.038;2023-04-27T10:47:37;92427.47;;;17.63
40968;BMP280;57377;45.130;6.038;2023-04-27T10:50:04;92436.19;;;17.78
40968;BMP280;57377;45.130;6.038;2023-04-27T10:52:30;92424.38;;;17.72
40968;BMP280;57377;45.130;6.038;2023-04-27T10:54:56;92434.44;;;17.94
40968;BMP280;57377;45.130;6.038;2023-04-27T10:57:22;92432.41;;;18.03
40968;BMP280;57377;45.130;6.038;2023-04-27T10:59:52;92437.63;;;17.88
40968;BMP280;57377;45.130;6.038;2023-04-27T11:02:27;92430.91;;;18.02
40968;BMP280;57377;45.130;6.038;2023-04-27T11:04:54;92417.97;;;17.97
40968;BMP280;57377;45.130;6.038;2023-04-27T11:07:27;92415.88;;;17.91
40968;BMP280;57377;45.130;6.038;2023-04-27T11:09:53;92415.34;;;17.85
40968;BMP280;57377;45.130;6.038;2023-04-27T11:12:19;92425.22;;;17.88
40968;BMP280;57377;45.130;6.038;2023-04-27T11:14:45;92416.69;;;17.91
40968;BMP280;57377;45.130;6.038;2023-04-27T11:17:10;92411.59;;;18.10
40968;BMP280;57377;45.130;6.038;2023-04-27T11:19:44;92399.78;;;18.04
40968;BMP280;57377;45.130;6.038;2023-04-27T11:22:10;92412.47;;;18.14
40968;BMP280;57377;45.130;6.038;2023-04-27T11:24:36;92410.28;;;18.16
40968;BMP280;57377;45.130;6.038;2023-04-27T11:27:01;92417.72;;;18.14
40968;BMP280;57377;45.130;6.038;2023-04-27T11:29:36;92414.19;;;18.22
40968;BMP280;57377;45.130;6.038;2023-04-27T11:32:03;92413.31;;;18.30
40968;BMP280;57377;45.130;6.038;2023-04-27T11:34:28;92413.91;;;18.38
40968;BMP280;57377;45.130;6.038;2023-04-27T11:36:59;92414.66;;;18.39
40968;BMP280;57377;45.130;6.038;2023-04-27T11:39:26;92405.47;;;18.60
40968;BMP280;57377;45.130;6.038;2023-04-27T11:41:52;92414.69;;;18.66
40968;BMP280;57377;45.130;6.038;2023-04-27T11:44:18;92408.66;;;18.81
40968;BMP280;57377;45.130;6.038;2023-04-27T11:46:43;92413.53;;;18.52
40968;BMP280;57377;45.130;6.038;2023-04-27T11:49:11;92408.84;;;18.45
40968;BMP280;57377;45.130;6.038;2023-04-27T11:51:36;92411.03;;;18.43
40968;BMP280;57377;45.130;6.038;2023-04-27T11:54:05;92407.00;;;18.34
40968;BMP280;57377;45.130;6.038;2023-04-27T11:56:38;92402.13;;;18.48
40968;BMP280;57377;45.130;6.038;2023-04-27T11:59:05;92397.06;;;18.28
40968;BMP280;57377;45.130;6.038;2023-04-27T12:01:32;92398.50;;;18.52
40968;BMP280;57377;45.130;6.038;2023-04-27T12:03:59;92395.38;;;18.35
40968;BMP280;57377;45.130;6.038;2023-04-27T12:06:28;92394.34;;;18.51
40968;BMP280;57377;45.130;6.038;2023-04-27T12:08:57;92395.84;;;18.52
40968;BMP280;57377;45.130;6.038;2023-04-27T12:11:26;92401.38;;;18.47
40968;BMP280;57377;45.130;6.038;2023-04-27T12:13:55;92412.84;;;18.55
40968;BMP280;57377;45.130;6.038;2023-04-27T12:16:21;92405.28;;;18.53
40968;BMP280;57377;45.130;6.038;2023-04-27T12:18:50;92406.19;;;18.45
40968;BMP280;57377;45.130;6.038;2023-04-27T12:21:16;92417.22;;;18.35
40968;BMP280;57377;45.130;6.038;2023-04-27T12:23:41;92409.31;;;18.35
40968;BMP280;57377;45.130;6.038;2023-04-27T12:26:06;92407.44;;;18.36
40968;BMP280;57377;45.130;6.038;2023-04-27T12:28:32;92408.69;;;18.27
40968;BMP280;57377;45.130;6.038;2023-04-27T12:30:57;92404.31;;;18.46
40968;BMP280;57377;45.130;6.038;2023-04-27T12:33:23;92402.31;;;18.55
40968;BMP280;57377;45.130;6.038;2023-04-27T12:35:48;92405.28;;;18.53
40968;BMP280;57377;45.130;6.038;2023-04-27T12:38:13;92405.72;;;18.55
40968;BMP280;57377;45.130;6.038;2023-04-27T12:40:39;92405.66;;;18.67
40968;BMP280;57377;45.130;6.038;2023-04-27T12:43:05;92409.50;;;18.69
40968;BMP280;57377;45.130;6.038;2023-04-27T12:45:31;92407.13;;;18.80
40968;BMP280;57377;45.130;6.038;2023-04-27T12:47:56;92408.91;;;18.76
40968;BMP280;57377;45.130;6.038;2023-04-27T12:50:22;92402.03;;;18.87
40968;BMP280;57377;45.130;6.038;2023-04-27T12:52:47;92400.25;;;18.91
40968;BMP280;57377;45.130;6.038;2023-04-27T12:55:14;92397.78;;;18.82
40968;BMP280;57377;45.130;6.038;2023-04-27T12:57:39;92408.91;;;18.76
40968;BMP280;57377;45.130;6.038;2023-04-27T13:00:05;92409.59;;;18.88
40968;BMP280;57377;45.130;6.038;2023-04-27T13:02:34;92401.19;;;18.83
40968;BMP280;57377;45.130;6.038;2023-04-27T13:05:00;92409.00;;;18.79
40968;BMP280;57377;45.130;6.038;2023-04-27T13:07:26;92407.72;;;18.89
40968;BMP280;57377;45.130;6.038;2023-04-27T13:09:51;92412.22;;;18.73
40968;BMP280;57377;45.130;6.038;2023-04-27T13:12:16;92410.44;;;18.77
40968;BMP280;57377;45.130;6.038;2023-04-27T13:14:42;92406.66;;;18.90
40968;BMP280;57377;45.130;6.038;2023-04-27T13:17:10;92412.78;;;18.94
40968;BMP280;57377;45.130;6.038;2023-04-27T13:19:36;92419.44;;;19.03
40968;BMP280;57377;45.130;6.038;2023-04-27T13:22:01;92421.13;;;19.11
40968;BMP280;57377;45.130;6.038;2023-04-27T13:24:28;92417.16;;;19.17
40968;BMP280;57377;45.130;6.038;2023-04-27T13:26:53;92415.78;;;19.07
40968;BMP280;57377;45.130;6.038;2023-04-27T13:29:18;92425.13;;;19.20
40968;BMP280;57377;45.130;6.038;2023-04-27T13:31:44;92421.59;;;19.28
40968;BMP280;57377;45.130;6.038;2023-04-27T13:34:09;92421.41;;;19.21
40968;BMP280;57377;45.130;6.038;2023-04-27T13:36:34;92424.63;;;19.30
40968;BMP280;57377;45.130;6.038;2023-04-27T13:39:00;92410.41;;;19.34
40968;BMP280;57377;45.130;6.038;2023-04-27T13:41:26;92424.72;;;19.33
40968;BMP280;57377;45.130;6.038;2023-04-27T13:43:51;92427.69;;;19.32
40968;BMP280;57377;45.130;6.038;2023-04-27T13:46:16;92425.31;;;19.27
40968;BMP280;57377;45.130;6.038;2023-04-27T13:48:42;92413.25;;;19.26
40968;BMP280;57377;45.130;6.038;2023-04-27T13:51:07;92415.09;;;19.41
40968;BMP280;57377;45.130;6.038;2023-04-27T13:53:33;92421.06;;;19.38
40968;BMP280;57377;45.130;6.038;2023-04-27T13:55:58;92418.69;;;19.33
40968;BMP280;57377;45.130;6.038;2023-04-27T13:58:25;92424.72;;;19.33
40968;BMP280;57377;45.130;6.038;2023-04-27T14:00:51;92420.91;;;19.31
40968;BMP280;57377;45.130;6.038;2023-04-27T14:03:17;92417.56;;;19.34
40968;BMP280;57377;45.130;6.038;2023-04-27T14:05:43;92407.78;;;19.50
40968;BMP280;57377;45.130;6.038;2023-04-27T14:08:09;92423.34;;;19.39
40968;BMP280;57377;45.130;6.038;2023-04-27T14:10:36;92408.72;;;19.42
40968;BMP280;57377;45.130;6.038;2023-04-27T14:13:01;92406.59;;;19.32